createdAt,value
2022-12-22T00:01:22.403Z,25.77
2022-12-22T00:04:08.330Z,25.47
2022-12-22T00:06:53.977Z,23.53
2022-12-22T00:09:39.841Z,25.97
2022-12-22T00:12:29.260Z,25.40
2022-12-22T00:15:14.889Z,24.30
2022-12-22T00:18:00.414Z,25.90
2022-12-22T00:20:45.860Z,24.40
2022-12-22T00:23:31.637Z,25.97
2022-12-22T00:26:17.779Z,24.37
2022-12-22T00:29:03.327Z,24.27
2022-12-22T00:31:49.091Z,25.40
2022-12-22T00:34:37.612Z,24.47
2022-12-22T00:37:23.116Z,26.00
2022-12-22T00:40:09.278Z,24.10
2022-12-22T00:42:55.057Z,25.03
2022-12-22T00:45:40.854Z,23.70
2022-12-22T00:48:49.388Z,24.17
2022-12-22T00:51:36.560Z,23.80
2022-12-22T00:54:22.316Z,24.70
2022-12-22T00:57:07.944Z,23.33
2022-12-22T00:59:53.449Z,21.93
2022-12-22T01:02:38.955Z,22.90
2022-12-22T01:05:24.908Z,23.60
2022-12-22T01:08:10.392Z,23.97
2022-12-22T01:10:56.235Z,22.93
2022-12-22T01:13:41.724Z,23.90
2022-12-22T01:16:31.531Z,24.70
2022-12-22T01:19:17.297Z,25.03
2022-12-22T01:22:02.718Z,23.40
2022-12-22T01:24:48.772Z,23.57
2022-12-22T01:27:34.745Z,25.20
2022-12-22T01:30:20.576Z,23.93
2022-12-22T01:33:06.300Z,24.83
2022-12-22T01:35:53.607Z,21.53
2022-12-22T01:38:39.168Z,23.50
2022-12-22T01:41:28.867Z,23.47
2022-12-22T01:44:14.185Z,24.60
2022-12-22T01:47:03.588Z,25.47
2022-12-22T01:49:56.657Z,27.67
2022-12-22T01:52:45.843Z,23.20
2022-12-22T01:55:35.639Z,26.53
2022-12-22T01:58:21.108Z,23.83
2022-12-22T02:01:06.681Z,24.50
2022-12-22T02:03:52.076Z,24.50
2022-12-22T02:07:00.433Z,24.10
2022-12-22T02:10:15.246Z,24.13
2022-12-22T02:13:20.407Z,23.10
2022-12-22T02:16:15.855Z,23.23
2022-12-22T02:19:09.568Z,23.53
2022-12-22T02:22:34.084Z,24.63
2022-12-22T02:25:32.491Z,26.00
2022-12-22T02:28:20.145Z,22.97
2022-12-22T02:31:08.067Z,22.50
2022-12-22T02:33:53.832Z,23.63
2022-12-22T02:36:50.460Z,25.87
2022-12-22T02:39:47.224Z,24.80
2022-12-22T02:42:45.929Z,24.40
2022-12-22T02:45:59.385Z,25.13
2022-12-22T02:49:31.146Z,23.37
2022-12-22T02:52:30.014Z,22.53
2022-12-22T02:55:19.023Z,23.67
2022-12-22T02:58:04.891Z,24.03
2022-12-22T03:00:50.569Z,22.50
2022-12-22T03:03:36.505Z,23.03
2022-12-22T03:06:22.171Z,24.23
2022-12-22T03:09:10.625Z,26.37
2022-12-22T03:11:55.953Z,22.87
2022-12-22T03:14:41.573Z,23.20
2022-12-22T03:17:27.119Z,22.30
2022-12-22T03:20:12.476Z,21.13
2022-12-22T03:22:58.116Z,23.47
2022-12-22T03:25:43.815Z,22.80
2022-12-22T03:28:11.541Z,22.67
2022-12-22T03:30:39.238Z,23.57
2022-12-22T03:33:06.341Z,24.50
2022-12-22T03:35:33.527Z,22.63
2022-12-22T03:38:03.778Z,21.87
2022-12-22T03:40:31.590Z,21.60
2022-12-22T03:43:17.492Z,24.50
2022-12-22T03:46:03.016Z,22.80
2022-12-22T03:48:30.149Z,24.60
2022-12-22T03:50:57.151Z,23.90
2022-12-22T03:53:24.143Z,24.83
2022-12-22T03:55:51.203Z,22.83
2022-12-22T03:58:20.330Z,22.20
2022-12-22T04:00:47.500Z,24.90
2022-12-22T04:03:14.603Z,22.97
2022-12-22T04:05:41.981Z,23.00
2022-12-22T04:08:09.194Z,23.53
2022-12-22T04:10:54.865Z,22.77
2022-12-22T04:13:21.927Z,24.27
2022-12-22T04:15:48.909Z,21.80
2022-12-22T04:18:15.954Z,24.07
2022-12-22T04:20:42.917Z,25.17
2022-12-22T04:23:09.957Z,23.50
2022-12-22T04:25:37.011Z,23.07
2022-12-22T04:28:04.133Z,26.00
2022-12-22T04:30:31.221Z,22.47
2022-12-22T04:32:58.266Z,21.73
2022-12-22T04:35:25.316Z,22.23
2022-12-22T04:37:52.313Z,21.23
2022-12-22T04:40:19.813Z,20.87
2022-12-22T04:42:46.925Z,22.50
2022-12-22T04:45:14.083Z,23.50
2022-12-22T04:47:41.100Z,22.20
2022-12-22T04:50:08.622Z,24.10
2022-12-22T04:52:35.689Z,22.30
2022-12-22T04:55:02.771Z,20.40
2022-12-22T04:57:29.810Z,23.80
2022-12-22T04:59:56.810Z,22.57
2022-12-22T05:02:24.147Z,21.73
2022-12-22T05:04:51.219Z,22.23
2022-12-22T05:07:18.301Z,22.30
2022-12-22T05:09:45.318Z,21.27
2022-12-22T05:12:30.764Z,23.77
2022-12-22T05:14:57.850Z,21.53
2022-12-22T05:17:24.909Z,22.83
2022-12-22T05:19:51.875Z,25.67
2022-12-22T05:22:18.886Z,22.10
2022-12-22T05:24:45.956Z,25.43
2022-12-22T05:27:13.057Z,24.80
2022-12-22T05:29:40.053Z,24.40
2022-12-22T05:32:07.142Z,24.60
2022-12-22T05:34:34.160Z,23.60
2022-12-22T05:37:01.235Z,25.60
2022-12-22T05:39:28.291Z,27.27
2022-12-22T05:41:55.333Z,26.10
2022-12-22T05:44:22.391Z,25.57
2022-12-22T05:46:52.900Z,25.90
2022-12-22T05:49:20.431Z,23.93
2022-12-22T05:51:51.839Z,25.47
2022-12-22T05:54:18.853Z,27.30
2022-12-22T05:56:46.075Z,25.73
2022-12-22T05:59:13.158Z,23.63
2022-12-22T06:01:40.332Z,26.37
2022-12-22T06:04:07.518Z,24.70
2022-12-22T06:06:34.630Z,25.57
2022-12-22T06:09:01.630Z,27.07
2022-12-22T06:11:28.771Z,27.87
2022-12-22T06:13:55.745Z,25.23
2022-12-22T06:16:24.040Z,27.80
2022-12-22T06:18:51.156Z,26.57
2022-12-22T06:21:18.181Z,26.80
2022-12-22T06:23:45.239Z,28.57
2022-12-22T06:26:12.179Z,25.00
2022-12-22T06:28:39.292Z,26.30
2022-12-22T06:31:06.413Z,26.70
2022-12-22T06:33:34.836Z,25.00
2022-12-22T06:36:05.624Z,26.73
2022-12-22T06:38:32.778Z,25.90
2022-12-22T06:40:59.851Z,27.13
2022-12-22T06:43:27.089Z,28.13
2022-12-22T06:45:54.220Z,26.13
2022-12-22T06:48:21.558Z,24.80
2022-12-22T06:50:48.725Z,26.33
2022-12-22T06:53:16.145Z,26.13
2022-12-22T06:55:43.456Z,25.27
2022-12-22T06:58:10.644Z,25.00
2022-12-22T07:00:37.922Z,160.47
2022-12-22T07:03:07.970Z,110.30
2022-12-22T07:05:37.940Z,62.73
2022-12-22T07:08:08.720Z,55.67
2022-12-22T07:10:54.287Z,56.90
2022-12-22T07:13:21.509Z,49.33
2022-12-22T07:15:55.589Z,52.23
2022-12-22T07:18:26.966Z,42.73
2022-12-22T07:20:55.069Z,38.30
2022-12-22T07:23:22.286Z,43.90
2022-12-22T07:25:49.290Z,39.13
2022-12-22T07:28:20.719Z,35.30
2022-12-22T07:30:50.216Z,36.33
2022-12-22T07:33:19.069Z,34.27
2022-12-22T07:35:47.006Z,32.30
2022-12-22T07:38:14.332Z,31.27
2022-12-22T07:40:42.773Z,28.00
2022-12-22T07:43:13.816Z,28.30
2022-12-22T07:45:40.953Z,26.87
2022-12-22T07:48:28.087Z,29.33
2022-12-22T07:51:01.924Z,28.43
2022-12-22T07:53:28.932Z,25.53
2022-12-22T07:55:55.949Z,25.70
2022-12-22T07:58:22.917Z,22.67
2022-12-22T08:00:50.043Z,21.77
2022-12-22T08:03:17.176Z,24.17
2022-12-22T08:05:45.615Z,23.20
2022-12-22T08:08:12.644Z,23.13
2022-12-22T08:10:42.288Z,23.10
2022-12-22T08:13:09.331Z,21.77
2022-12-22T08:15:38.093Z,22.63
2022-12-22T08:18:05.213Z,22.47
2022-12-22T08:20:32.240Z,20.70
2022-12-22T08:22:59.361Z,18.10
2022-12-22T08:25:26.432Z,20.67
2022-12-22T08:27:56.478Z,20.67
2022-12-22T08:30:23.781Z,18.03
2022-12-22T08:32:51.932Z,18.30
2022-12-22T08:35:20.146Z,19.63
2022-12-22T08:37:48.784Z,19.57
2022-12-22T08:40:25.468Z,18.33
2022-12-22T08:42:59.179Z,19.13
2022-12-22T08:45:26.404Z,17.33
2022-12-22T08:47:53.493Z,18.27
2022-12-22T08:50:20.609Z,17.37
2022-12-22T08:52:47.804Z,15.83
2022-12-22T08:55:14.948Z,18.10
2022-12-22T08:57:42.086Z,16.43
2022-12-22T09:00:13.191Z,15.53
2022-12-22T09:02:40.678Z,16.27
2022-12-22T09:05:08.166Z,15.80
2022-12-22T09:07:35.219Z,15.87
2022-12-22T09:10:02.786Z,14.83
2022-12-22T09:12:30.538Z,14.60
2022-12-22T09:14:57.598Z,14.40
2022-12-22T09:17:24.685Z,15.30
2022-12-22T09:19:51.970Z,14.97
2022-12-22T09:22:28.201Z,16.00
2022-12-22T09:24:56.444Z,14.97
2022-12-22T09:27:23.551Z,15.40
2022-12-22T09:29:50.551Z,15.43
2022-12-22T09:32:17.735Z,15.50
2022-12-22T09:34:44.743Z,15.23
2022-12-22T09:37:14.160Z,16.63
2022-12-22T09:39:41.212Z,14.67
2022-12-22T09:42:15.317Z,14.63
2022-12-22T09:44:46.073Z,16.67
2022-12-22T09:47:47.275Z,16.60
2022-12-22T09:50:17.239Z,15.60
2022-12-22T09:52:49.396Z,16.10
2022-12-22T09:55:36.725Z,12.93
2022-12-22T09:58:03.857Z,14.10
2022-12-22T10:00:30.993Z,14.47
2022-12-22T10:03:24.204Z,14.97
2022-12-22T10:06:17.478Z,15.33
2022-12-22T10:08:44.547Z,15.30
2022-12-22T10:11:17.665Z,15.60
2022-12-22T10:13:45.526Z,16.93
2022-12-22T10:16:24.823Z,12.50
2022-12-22T10:18:58.021Z,16.10
2022-12-22T10:21:26.374Z,14.43
2022-12-22T10:23:54.048Z,14.70
2022-12-22T10:26:29.589Z,14.10
2022-12-22T10:29:07.884Z,15.80
2022-12-22T10:31:37.295Z,14.50
2022-12-22T10:34:18.259Z,12.10
2022-12-22T10:36:50.933Z,13.90
2022-12-22T10:39:24.220Z,15.43
2022-12-22T10:41:55.277Z,13.10
2022-12-22T10:44:31.482Z,12.43
2022-12-22T10:47:01.768Z,14.40
2022-12-22T10:49:30.860Z,14.77
2022-12-22T10:52:13.199Z,13.43
2022-12-22T10:54:44.751Z,12.80
2022-12-22T10:57:14.708Z,14.40
2022-12-22T10:59:56.732Z,14.50
2022-12-22T11:02:38.163Z,13.20
2022-12-22T11:05:07.246Z,12.93
2022-12-22T11:07:37.452Z,14.37
2022-12-22T11:10:31.791Z,12.10
2022-12-22T11:13:35.813Z,13.20
2022-12-22T11:16:32.499Z,13.60
2022-12-22T11:19:38.385Z,10.83
2022-12-22T11:22:16.531Z,10.97
2022-12-22T11:25:18.806Z,11.13
2022-12-22T11:28:04.514Z,11.63
2022-12-22T11:31:06.078Z,10.60
2022-12-22T11:34:04.015Z,11.10
2022-12-22T11:36:53.078Z,11.87
2022-12-22T11:40:06.033Z,11.90
2022-12-22T11:42:33.032Z,10.80
2022-12-22T11:45:43.098Z,10.07
2022-12-22T11:48:26.046Z,10.10
2022-12-22T11:51:10.447Z,10.30
2022-12-22T11:54:10.320Z,11.00
2022-12-22T11:56:52.288Z,10.37
2022-12-22T11:59:39.557Z,8.13
2022-12-22T12:02:28.566Z,9.93
2022-12-22T12:05:07.609Z,9.37
2022-12-22T12:07:41.367Z,9.30
2022-12-22T12:10:35.779Z,7.90
2022-12-22T12:13:36.869Z,9.00
2022-12-22T12:16:26.016Z,9.40
2022-12-22T12:19:09.591Z,7.10
2022-12-22T12:21:54.543Z,9.17
2022-12-22T12:24:37.017Z,8.87
2022-12-22T12:27:25.846Z,7.67
2022-12-22T12:33:22.933Z,8.40
2022-12-22T12:36:09.475Z,7.57
2022-12-22T12:41:53.676Z,9.70
2022-12-22T12:44:26.607Z,9.60
2022-12-22T12:46:56.073Z,7.70
2022-12-22T12:49:35.405Z,7.43
2022-12-22T12:52:04.492Z,7.83
2022-12-22T12:54:48.212Z,6.83
2022-12-22T12:57:24.678Z,8.50
2022-12-22T12:59:58.899Z,8.30
2022-12-22T13:02:30.049Z,7.00
2022-12-22T13:05:11.655Z,7.50
2022-12-22T13:08:15.856Z,6.30
2022-12-22T13:10:45.266Z,8.17
2022-12-22T13:13:34.061Z,8.13
2022-12-22T13:16:01.788Z,7.23
2022-12-22T13:18:34.941Z,6.30
2022-12-22T13:21:42.600Z,7.00
2022-12-22T13:24:22.731Z,7.40
2022-12-22T13:26:44.112Z,6.20
2022-12-22T13:29:26.163Z,7.03
2022-12-22T13:32:02.180Z,6.53
2022-12-22T13:34:57.641Z,7.27
2022-12-22T13:37:29.536Z,5.80
2022-12-22T13:40:09.220Z,6.97
2022-12-22T13:42:47.387Z,7.10
2022-12-22T13:45:33.877Z,6.70
2022-12-22T13:48:06.305Z,7.27
2022-12-22T13:50:36.670Z,8.13
2022-12-22T13:53:15.384Z,7.77
2022-12-22T13:55:52.124Z,8.43
2022-12-22T13:58:27.956Z,8.67
2022-12-22T14:01:17.336Z,8.67
2022-12-22T14:04:02.498Z,9.00
2022-12-22T14:06:33.314Z,7.27
2022-12-22T14:09:20.902Z,10.00
2022-12-22T14:11:57.002Z,6.87
2022-12-22T14:14:30.164Z,7.63
2022-12-22T14:17:00.541Z,7.87
2022-12-22T14:19:34.009Z,8.03
2022-12-22T14:22:11.508Z,8.97
2022-12-22T14:24:56.055Z,6.90
2022-12-22T14:27:35.170Z,7.17
2022-12-22T14:30:05.330Z,7.63
2022-12-22T14:32:52.426Z,7.47
2022-12-22T14:35:21.468Z,8.03
2022-12-22T14:37:52.494Z,8.10
2022-12-22T14:40:33.542Z,7.00
2022-12-22T14:43:03.598Z,9.20
2022-12-22T14:45:31.158Z,8.07
2022-12-22T14:47:58.422Z,6.97
2022-12-22T14:50:28.148Z,7.47
2022-12-22T14:53:05.089Z,7.40
2022-12-22T14:55:36.789Z,5.53
2022-12-22T14:58:03.786Z,6.10
2022-12-22T15:00:37.477Z,5.63
2022-12-22T15:03:25.720Z,5.30
2022-12-22T15:05:53.359Z,5.43
2022-12-22T15:08:40.632Z,5.97
2022-12-22T15:11:13.817Z,5.40
2022-12-22T15:13:41.024Z,5.90
2022-12-22T15:16:15.641Z,5.23
2022-12-22T15:18:42.835Z,4.27
2022-12-22T15:21:13.724Z,5.03
2022-12-22T15:23:40.949Z,4.67
2022-12-22T15:26:08.768Z,5.70
2022-12-22T15:28:35.900Z,4.63
2022-12-22T15:31:05.021Z,5.93
2022-12-22T15:33:32.306Z,4.60
2022-12-22T15:35:59.412Z,5.60
2022-12-22T15:38:26.626Z,5.37
2022-12-22T15:40:53.667Z,6.53
2022-12-22T15:46:07.906Z,4.10
2022-12-22T15:48:37.345Z,4.60
2022-12-22T15:51:07.808Z,3.70
2022-12-22T15:53:35.608Z,4.10
2022-12-22T15:56:03.139Z,3.80
2022-12-22T15:58:36.433Z,4.27
2022-12-22T16:01:03.760Z,4.53
2022-12-22T16:03:30.985Z,5.03
2022-12-22T16:05:58.810Z,3.63
2022-12-22T16:08:33.251Z,4.20
2022-12-22T16:11:00.629Z,3.77
2022-12-22T16:13:28.887Z,3.87
2022-12-22T16:15:59.504Z,5.10
2022-12-22T16:18:26.867Z,4.40
2022-12-22T16:20:54.295Z,3.97
2022-12-22T16:23:27.365Z,6.93
2022-12-22T16:26:01.333Z,3.83
2022-12-22T16:28:29.204Z,3.90
2022-12-22T16:30:56.416Z,4.70
2022-12-22T16:33:23.497Z,4.40
2022-12-22T16:35:50.561Z,4.87
2022-12-22T16:38:19.169Z,3.57
2022-12-22T16:40:53.053Z,3.53
2022-12-22T16:46:18.483Z,4.33
2022-12-22T16:48:49.168Z,4.70
2022-12-22T16:51:25.312Z,4.40
2022-12-22T16:53:52.512Z,3.67
2022-12-22T16:56:28.185Z,5.50
2022-12-22T16:58:55.438Z,3.67
2022-12-22T17:01:39.209Z,3.60
2022-12-22T17:04:14.969Z,5.17
2022-12-22T17:06:42.544Z,4.27
2022-12-22T17:09:19.176Z,4.37
2022-12-22T17:11:47.239Z,5.47
2022-12-22T17:14:31.550Z,4.57
2022-12-22T17:16:59.629Z,4.80
2022-12-22T17:19:26.648Z,4.50
2022-12-22T17:21:55.265Z,6.90
2022-12-22T17:24:28.203Z,4.70
2022-12-22T17:26:59.856Z,6.10
2022-12-22T17:29:27.103Z,6.97
2022-12-22T17:31:56.656Z,4.53
2022-12-22T17:34:24.443Z,5.10
2022-12-22T17:36:51.837Z,4.70
2022-12-22T17:39:21.294Z,4.33
2022-12-22T17:41:56.767Z,4.00
2022-12-22T17:44:26.207Z,4.33
2022-12-22T17:46:53.695Z,4.80
2022-12-22T17:49:22.426Z,5.13
2022-12-22T17:51:52.310Z,6.50
2022-12-22T17:54:27.350Z,4.10
2022-12-22T17:57:00.923Z,4.70
2022-12-22T17:59:28.127Z,4.40
2022-12-22T18:01:55.395Z,3.77
2022-12-22T18:04:22.590Z,4.57
2022-12-22T18:06:49.700Z,4.07
2022-12-22T18:09:23.408Z,6.27
2022-12-22T18:11:51.360Z,4.00
2022-12-22T18:14:22.183Z,5.43
2022-12-22T18:16:49.457Z,4.50
2022-12-22T18:19:16.564Z,4.23
2022-12-22T18:21:43.964Z,3.70
2022-12-22T18:24:18.991Z,5.17
2022-12-22T18:26:47.268Z,6.33
2022-12-22T18:29:16.128Z,3.87
2022-12-22T18:31:44.529Z,4.80
2022-12-22T18:34:12.523Z,4.97
2022-12-22T18:36:42.461Z,4.20
2022-12-22T18:39:17.320Z,4.80
2022-12-22T18:41:45.138Z,7.20
2022-12-22T18:44:21.126Z,6.33
2022-12-22T18:46:48.839Z,7.07
2022-12-22T18:49:16.364Z,6.27
2022-12-22T18:51:44.853Z,7.07
2022-12-22T18:54:37.053Z,5.90
2022-12-22T18:57:05.603Z,6.23
2022-12-22T18:59:33.283Z,5.00
2022-12-22T19:02:25.559Z,3.80
2022-12-22T19:04:53.615Z,6.33
2022-12-22T19:07:23.756Z,4.83
2022-12-22T19:09:52.033Z,4.47
2022-12-22T19:12:23.245Z,4.80
2022-12-22T19:14:54.977Z,5.90
2022-12-22T19:17:26.436Z,4.60
2022-12-22T19:19:53.541Z,4.53
2022-12-22T19:22:20.834Z,8.00
2022-12-22T19:24:49.110Z,6.10
2022-12-22T19:27:21.519Z,4.97
2022-12-22T19:29:48.686Z,6.73
2022-12-22T19:32:29.067Z,5.70
2022-12-22T19:34:56.449Z,4.83
2022-12-22T19:37:23.606Z,5.43
2022-12-22T19:39:50.855Z,5.20
2022-12-22T19:42:22.494Z,4.70
2022-12-22T19:44:49.713Z,5.20
2022-12-22T19:47:21.311Z,4.90
2022-12-22T19:49:48.650Z,4.60
2022-12-22T19:52:18.144Z,5.90
2022-12-22T19:54:48.051Z,6.07
2022-12-22T19:57:22.274Z,4.40
2022-12-22T19:59:51.894Z,4.33
2022-12-22T20:02:23.996Z,4.37
2022-12-22T20:04:51.507Z,4.30
2022-12-22T20:07:20.827Z,4.50
2022-12-22T20:09:48.375Z,4.00
2022-12-22T20:12:26.978Z,3.80
2022-12-22T20:14:54.575Z,5.23
2022-12-22T20:17:21.843Z,3.93
2022-12-22T20:19:49.075Z,4.73
2022-12-22T20:22:18.760Z,4.60
2022-12-22T20:24:47.423Z,3.47
2022-12-22T20:27:41.015Z,4.83
2022-12-22T20:30:22.014Z,4.87
2022-12-22T20:32:49.349Z,4.90
2022-12-22T20:35:17.914Z,4.10
2022-12-22T20:37:45.454Z,4.07
2022-12-22T20:40:24.929Z,3.40
2022-12-22T20:42:52.349Z,4.30
2022-12-22T20:45:23.293Z,3.63
2022-12-22T20:47:51.368Z,4.00
2022-12-22T20:50:20.025Z,4.27
2022-12-22T20:52:48.108Z,4.07
2022-12-22T20:55:17.215Z,3.40
2022-12-22T20:57:45.168Z,4.10
2022-12-22T21:00:26.678Z,3.47
2022-12-22T21:02:54.501Z,3.10
2022-12-22T21:05:22.125Z,3.50
2022-12-22T21:07:49.667Z,4.90
2022-12-22T21:10:23.313Z,3.60
2022-12-22T21:12:50.738Z,3.70
2022-12-22T21:15:23.066Z,4.50
2022-12-22T21:17:57.706Z,3.83
2022-12-22T21:20:28.024Z,4.30
2022-12-22T21:22:55.188Z,4.57
2022-12-22T21:25:25.771Z,4.90
2022-12-22T21:27:53.280Z,4.97
2022-12-22T21:30:25.885Z,4.93
2022-12-22T21:32:53.179Z,5.57
2022-12-22T21:35:27.571Z,5.47
2022-12-22T21:37:57.545Z,5.43
2022-12-22T21:40:30.594Z,5.53
2022-12-22T21:42:58.274Z,5.77
2022-12-22T21:45:28.407Z,5.33
2022-12-22T21:47:56.063Z,6.17
2022-12-22T21:50:28.858Z,5.13
2022-12-22T21:52:56.367Z,6.67
2022-12-22T21:55:34.894Z,5.43
2022-12-22T21:58:03.002Z,5.47
2022-12-22T22:00:34.161Z,5.97
2022-12-22T22:03:03.266Z,5.33
2022-12-22T22:05:35.313Z,4.53
2022-12-22T22:08:04.126Z,6.47
2022-12-22T22:10:37.352Z,6.20
2022-12-22T22:13:05.304Z,6.13
2022-12-22T22:15:32.956Z,6.67
2022-12-22T22:18:06.381Z,6.00
2022-12-22T22:20:33.782Z,7.63
2022-12-22T22:23:03.618Z,6.27
2022-12-22T22:25:30.613Z,9.77
2022-12-22T22:28:00.795Z,9.03
2022-12-22T22:30:27.926Z,9.37
2022-12-22T22:32:58.762Z,7.83
2022-12-22T22:35:27.234Z,9.70
2022-12-22T22:37:55.148Z,11.10
2022-12-22T22:40:23.606Z,9.77
2022-12-22T22:42:50.826Z,8.20
2022-12-22T22:45:24.139Z,11.13
2022-12-22T22:47:52.673Z,11.33
2022-12-22T22:50:23.027Z,11.10
2022-12-22T22:52:50.479Z,9.03
2022-12-22T22:55:17.588Z,9.80
2022-12-22T22:57:44.621Z,10.40
2022-12-22T23:00:13.619Z,9.43
2022-12-22T23:02:41.042Z,9.77
2022-12-22T23:05:09.142Z,9.13
2022-12-22T23:07:39.640Z,9.90
2022-12-22T23:10:07.356Z,10.97
2022-12-22T23:12:34.425Z,10.60
2022-12-22T23:15:02.009Z,10.20
2022-12-22T23:17:29.510Z,10.67
2022-12-22T23:19:56.547Z,13.00
2022-12-22T23:22:23.834Z,11.93
2022-12-22T23:24:50.931Z,13.00
2022-12-22T23:27:17.948Z,11.10
2022-12-22T23:29:44.959Z,11.43
2022-12-22T23:32:12.065Z,11.20
2022-12-22T23:34:39.022Z,12.47
2022-12-22T23:37:06.112Z,11.47
2022-12-22T23:39:33.165Z,10.20
2022-12-22T23:42:00.221Z,11.07
2022-12-22T23:44:27.397Z,11.30
2022-12-22T23:46:54.385Z,11.30
2022-12-22T23:49:21.541Z,11.33
2022-12-22T23:51:48.608Z,13.17
2022-12-22T23:54:15.668Z,11.73
2022-12-22T23:56:42.669Z,11.87
2022-12-22T23:59:09.740Z,11.70
